sensor_id;sensor_type;location;lat;lon;timestamp;temperature;humidity
31765;DHT22;18338;53.240;8.798;2023-08-30T00:01:02;13.00;99.90
31765;DHT22;18338;53.240;8.798;2023-08-30T00:03:29;13.00;99.90
31765;DHT22;18338;53.240;8.798;2023-08-30T00:06:02;13.00;99.90
31765;DHT22;18338;53.240;8.798;2023-08-30T00:08:30;13.00;99.90
31765;DHT22;18338;53.240;8.798;2023-08-30T00:10:56;13.10;99.90
31765;DHT22;18338;53.240;8.798;2023-08-30T00:13:26;13.10;99.90
31765;DHT22;18338;53.240;8.798;2023-08-30T00:15:53;13.20;99.90
31765;DHT22;18338;53.240;8.798;2023-08-30T00:18:20;13.30;99.90
31765;DHT22;18338;53.240;8.798;2023-08-30T00:20:46;13.40;99.90
31765;DHT22;18338;53.240;8.798;2023-08-30T00:23:13;13.40;99.90
31765;DHT22;18338;53.240;8.798;2023-08-30T00:25:40;13.50;99.90
31765;DHT22;18338;53.240;8.798;2023-08-30T00:28:06;13.50;99.90
31765;DHT22;18338;53.240;8.798;2023-08-30T00:30:34;13.50;99.90
31765;DHT22;18338;53.240;8.798;2023-08-30T00:33:01;13.50;99.90
31765;DHT22;18338;53.240;8.798;2023-08-30T00:35:27;13.50;99.90
31765;DHT22;18338;53.240;8.798;2023-08-30T00:37:54;13.50;99.90
31765;DHT22;18338;53.240;8.798;2023-08-30T00:40:24;13.50;99.90
31765;DHT22;18338;53.240;8.798;2023-08-30T00:42:51;13.50;99.90
31765;DHT22;18338;53.240;8.798;2023-08-30T00:45:19;13.50;99.90
31765;DHT22;18338;53.240;8.798;2023-08-30T00:47:46;13.50;99.90
31765;DHT22;18338;53.240;8.798;2023-08-30T00:50:13;13.50;99.90
31765;DHT22;18338;53.240;8.798;2023-08-30T00:52:41;13.50;99.90
31765;DHT22;18338;53.240;8.798;2023-08-30T00:55:08;13.50;99.90
31765;DHT22;18338;53.240;8.798;2023-08-30T00:57:35;13.50;99.90
31765;DHT22;18338;53.240;8.798;2023-08-30T01:00:02;13.50;99.90
31765;DHT22;18338;53.240;8.798;2023-08-30T01:02:31;13.50;99.90
31765;DHT22;18338;53.240;8.798;2023-08-30T01:04:58;13.40;99.90
31765;DHT22;18338;53.240;8.798;2023-08-30T01:07:25;13.40;99.90
31765;DHT22;18338;53.240;8.798;2023-08-30T01:09:54;13.40;99.90
31765;DHT22;18338;53.240;8.798;2023-08-30T01:12:24;13.40;99.90
31765;DHT22;18338;53.240;8.798;2023-08-30T01:15:06;13.40;99.90
31765;DHT22;18338;53.240;8.798;2023-08-30T01:17:37;13.40;99.90
31765;DHT22;18338;53.240;8.798;2023-08-30T01:20:07;13.40;99.90
31765;DHT22;18338;53.240;8.798;2023-08-30T01:22:59;13.40;99.90
31765;DHT22;18338;53.240;8.798;2023-08-30T01:25:43;13.30;99.90
31765;DHT22;18338;53.240;8.798;2023-08-30T01:28:13;13.30;99.90
31765;DHT22;18338;53.240;8.798;2023-08-30T01:30:43;13.30;99.90
31765;DHT22;18338;53.240;8.798;2023-08-30T01:33:14;13.30;99.90
31765;DHT22;18338;53.240;8.798;2023-08-30T01:35:42;13.30;99.90
31765;DHT22;18338;53.240;8.798;2023-08-30T01:38:10;13.30;99.90
31765;DHT22;18338;53.240;8.798;2023-08-30T01:40:40;13.30;99.90
31765;DHT22;18338;53.240;8.798;2023-08-30T01:43:08;13.30;99.90
31765;DHT22;18338;53.240;8.798;2023-08-30T01:45:36;13.30;99.90
31765;DHT22;18338;53.240;8.798;2023-08-30T01:48:07;13.30;99.90
31765;DHT22;18338;53.240;8.798;2023-08-30T01:50:38;13.40;99.90
31765;DHT22;18338;53.240;8.798;2023-08-30T01:53:05;13.40;99.90
31765;DHT22;18338;53.240;8.798;2023-08-30T01:55:34;13.40;99.90
31765;DHT22;18338;53.240;8.798;2023-08-30T01:58:06;13.40;99.90
31765;DHT22;18338;53.240;8.798;2023-08-30T02:00:34;13.40;99.90
31765;DHT22;18338;53.240;8.798;2023-08-30T02:03:09;13.40;99.90
31765;DHT22;18338;53.240;8.798;2023-08-30T02:05:41;13.50;99.90
31765;DHT22;18338;53.240;8.798;2023-08-30T02:08:14;13.50;99.90
31765;DHT22;18338;53.240;8.798;2023-08-30T02:10:48;13.60;99.90
31765;DHT22;18338;53.240;8.798;2023-08-30T02:13:22;13.60;99.90
31765;DHT22;18338;53.240;8.798;2023-08-30T02:15:54;13.60;99.90
31765;DHT22;18338;53.240;8.798;2023-08-30T02:18:23;13.60;99.90
31765;DHT22;18338;53.240;8.798;2023-08-30T02:20:50;13.70;99.90
31765;DHT22;18338;53.240;8.798;2023-08-30T02:23:18;13.70;99.90
31765;DHT22;18338;53.240;8.798;2023-08-30T02:25:46;13.60;99.90
31765;DHT22;18338;53.240;8.798;2023-08-30T02:28:12;13.70;99.90
31765;DHT22;18338;53.240;8.798;2023-08-30T02:30:39;13.70;99.90
31765;DHT22;18338;53.240;8.798;2023-08-30T02:33:06;13.70;99.90
31765;DHT22;18338;53.240;8.798;2023-08-30T02:35:33;13.80;99.90
31765;DHT22;18338;53.240;8.798;2023-08-30T02:38:00;13.80;99.90
31765;DHT22;18338;53.240;8.798;2023-08-30T02:40:26;13.80;99.90
31765;DHT22;18338;53.240;8.798;2023-08-30T02:42:53;13.80;99.90
31765;DHT22;18338;53.240;8.798;2023-08-30T02:45:20;13.90;99.90
31765;DHT22;18338;53.240;8.798;2023-08-30T02:47:48;13.90;99.90
31765;DHT22;18338;53.240;8.798;2023-08-30T02:50:15;13.90;99.90
31765;DHT22;18338;53.240;8.798;2023-08-30T02:52:41;13.80;99.90
31765;DHT22;18338;53.240;8.798;2023-08-30T02:55:08;13.80;99.90
31765;DHT22;18338;53.240;8.798;2023-08-30T02:57:35;13.80;99.90
31765;DHT22;18338;53.240;8.798;2023-08-30T03:00:02;13.80;99.90
31765;DHT22;18338;53.240;8.798;2023-08-30T03:02:32;13.80;99.90
31765;DHT22;18338;53.240;8.798;2023-08-30T03:05:00;13.80;99.90
31765;DHT22;18338;53.240;8.798;2023-08-30T03:07:28;13.80;99.90
31765;DHT22;18338;53.240;8.798;2023-08-30T03:09:56;13.70;99.90
31765;DHT22;18338;53.240;8.798;2023-08-30T03:12:22;13.70;99.90
31765;DHT22;18338;53.240;8.798;2023-08-30T03:14:49;13.70;99.90
31765;DHT22;18338;53.240;8.798;2023-08-30T03:17:16;13.70;99.90
31765;DHT22;18338;53.240;8.798;2023-08-30T03:19:43;13.70;99.90
31765;DHT22;18338;53.240;8.798;2023-08-30T03:22:10;13.70;99.90
31765;DHT22;18338;53.240;8.798;2023-08-30T03:24:36;13.60;99.90
31765;DHT22;18338;53.240;8.798;2023-08-30T03:27:03;13.60;99.90
31765;DHT22;18338;53.240;8.798;2023-08-30T03:29:30;13.50;99.90
31765;DHT22;18338;53.240;8.798;2023-08-30T03:31:56;13.50;99.90
31765;DHT22;18338;53.240;8.798;2023-08-30T03:34:23;13.40;99.90
31765;DHT22;18338;53.240;8.798;2023-08-30T03:36:50;13.40;99.90
31765;DHT22;18338;53.240;8.798;2023-08-30T03:39:21;13.50;99.90
31765;DHT22;18338;53.240;8.798;2023-08-30T03:41:48;13.50;99.90
31765;DHT22;18338;53.240;8.798;2023-08-30T03:44:14;13.60;99.90
31765;DHT22;18338;53.240;8.798;2023-08-30T03:46:43;13.60;99.90
31765;DHT22;18338;53.240;8.798;2023-08-30T03:49:10;13.60;99.90
31765;DHT22;18338;53.240;8.798;2023-08-30T03:51:37;13.60;99.90
31765;DHT22;18338;53.240;8.798;2023-08-30T03:54:04;13.50;99.90
31765;DHT22;18338;53.240;8.798;2023-08-30T03:56:30;13.50;99.90
31765;DHT22;18338;53.240;8.798;2023-08-30T03:58:57;13.40;99.90
31765;DHT22;18338;53.240;8.798;2023-08-30T04:01:24;13.30;99.90
31765;DHT22;18338;53.240;8.798;2023-08-30T04:03:50;13.30;99.90
31765;DHT22;18338;53.240;8.798;2023-08-30T04:06:17;13.20;99.90
31765;DHT22;18338;53.240;8.798;2023-08-30T04:08:45;13.10;99.90
31765;DHT22;18338;53.240;8.798;2023-08-30T04:11:12;13.10;99.90
31765;DHT22;18338;53.240;8.798;2023-08-30T04:13:38;13.10;99.90
31765;DHT22;18338;53.240;8.798;2023-08-30T04:16:05;13.10;99.90
31765;DHT22;18338;53.240;8.798;2023-08-30T04:18:32;13.10;99.90
31765;DHT22;18338;53.240;8.798;2023-08-30T04:20:59;13.10;99.90
31765;DHT22;18338;53.240;8.798;2023-08-30T04:23:25;13.10;99.90
31765;DHT22;18338;53.240;8.798;2023-08-30T04:25:52;13.10;99.90
31765;DHT22;18338;53.240;8.798;2023-08-30T04:28:21;13.20;99.90
31765;DHT22;18338;53.240;8.798;2023-08-30T04:30:48;13.30;99.90
31765;DHT22;18338;53.240;8.798;2023-08-30T04:33:15;13.30;99.90
31765;DHT22;18338;53.240;8.798;2023-08-30T04:35:42;13.20;99.90
31765;DHT22;18338;53.240;8.798;2023-08-30T04:38:08;13.20;99.90
31765;DHT22;18338;53.240;8.798;2023-08-30T04:40:35;13.20;99.90
31765;DHT22;18338;53.240;8.798;2023-08-30T04:43:03;13.10;99.90
31765;DHT22;18338;53.240;8.798;2023-08-30T04:45:30;13.10;99.90
31765;DHT22;18338;53.240;8.798;2023-08-30T04:47:57;13.20;99.90
31765;DHT22;18338;53.240;8.798;2023-08-30T04:50:23;13.20;99.90
31765;DHT22;18338;53.240;8.798;2023-08-30T04:52:50;13.20;99.90
31765;DHT22;18338;53.240;8.798;2023-08-30T04:55:17;13.10;99.90
31765;DHT22;18338;53.240;8.798;2023-08-30T04:57:44;13.10;99.90
31765;DHT22;18338;53.240;8.798;2023-08-30T05:00:12;13.10;99.90
31765;DHT22;18338;53.240;8.798;2023-08-30T05:02:39;13.10;99.90
31765;DHT22;18338;53.240;8.798;2023-08-30T05:05:07;13.10;99.90
31765;DHT22;18338;53.240;8.798;2023-08-30T05:07:34;13.10;99.90
31765;DHT22;18338;53.240;8.798;2023-08-30T05:10:01;13.10;99.90
31765;DHT22;18338;53.240;8.798;2023-08-30T05:12:28;13.00;99.90
31765;DHT22;18338;53.240;8.798;2023-08-30T05:14:55;13.00;99.90
31765;DHT22;18338;53.240;8.798;2023-08-30T05:17:22;13.00;99.90
31765;DHT22;18338;53.240;8.798;2023-08-30T05:19:49;13.00;99.90
31765;DHT22;18338;53.240;8.798;2023-08-30T05:22:16;13.00;99.90
31765;DHT22;18338;53.240;8.798;2023-08-30T05:24:42;13.00;99.90
31765;DHT22;18338;53.240;8.798;2023-08-30T05:27:09;13.00;99.90
31765;DHT22;18338;53.240;8.798;2023-08-30T05:29:38;13.00;99.90
31765;DHT22;18338;53.240;8.798;2023-08-30T05:32:05;13.10;99.90
31765;DHT22;18338;53.240;8.798;2023-08-30T05:34:31;13.10;99.90
31765;DHT22;18338;53.240;8.798;2023-08-30T05:36:58;13.10;99.90
31765;DHT22;18338;53.240;8.798;2023-08-30T05:39:25;13.10;99.90
31765;DHT22;18338;53.240;8.798;2023-08-30T05:41:52;13.20;99.90
31765;DHT22;18338;53.240;8.798;2023-08-30T05:44:19;13.20;99.90
31765;DHT22;18338;53.240;8.798;2023-08-30T05:46:45;13.20;99.90
31765;DHT22;18338;53.240;8.798;2023-08-30T05:49:12;13.30;99.90
31765;DHT22;18338;53.240;8.798;2023-08-30T05:51:39;13.40;99.90
31765;DHT22;18338;53.240;8.798;2023-08-30T05:54:06;13.50;99.90
31765;DHT22;18338;53.240;8.798;2023-08-30T05:56:32;13.50;99.90
31765;DHT22;18338;53.240;8.798;2023-08-30T05:58:59;13.60;99.90
31765;DHT22;18338;53.240;8.798;2023-08-30T06:01:26;13.60;99.90
31765;DHT22;18338;53.240;8.798;2023-08-30T06:03:52;13.70;99.90
31765;DHT22;18338;53.240;8.798;2023-08-30T06:06:19;13.80;99.90
31765;DHT22;18338;53.240;8.798;2023-08-30T06:08:47;13.90;99.90
31765;DHT22;18338;53.240;8.798;2023-08-30T06:11:14;14.00;99.90
31765;DHT22;18338;53.240;8.798;2023-08-30T06:13:41;14.00;99.90
31765;DHT22;18338;53.240;8.798;2023-08-30T06:16:08;14.10;99.90
31765;DHT22;18338;53.240;8.798;2023-08-30T06:18:35;14.30;99.90
31765;DHT22;18338;53.240;8.798;2023-08-30T06:21:03;14.40;99.90
31765;DHT22;18338;53.240;8.798;2023-08-30T06:23:33;14.40;99.90
31765;DHT22;18338;53.240;8.798;2023-08-30T06:26:00;14.50;99.90
31765;DHT22;18338;53.240;8.798;2023-08-30T06:28:27;14.60;99.90
31765;DHT22;18338;53.240;8.798;2023-08-30T06:30:54;14.70;99.90
31765;DHT22;18338;53.240;8.798;2023-08-30T06:33:20;14.70;99.90
31765;DHT22;18338;53.240;8.798;2023-08-30T06:35:48;14.80;99.90
31765;DHT22;18338;53.240;8.798;2023-08-30T06:38:17;14.80;99.90
31765;DHT22;18338;53.240;8.798;2023-08-30T06:40:44;14.90;99.90
31765;DHT22;18338;53.240;8.798;2023-08-30T06:43:12;15.00;99.90
31765;DHT22;18338;53.240;8.798;2023-08-30T06:45:39;15.10;99.90
31765;DHT22;18338;53.240;8.798;2023-08-30T06:48:06;15.10;99.90
31765;DHT22;18338;53.240;8.798;2023-08-30T06:50:35;15.20;99.90
31765;DHT22;18338;53.240;8.798;2023-08-30T06:53:03;15.30;99.90
31765;DHT22;18338;53.240;8.798;2023-08-30T06:55:30;15.40;99.90
31765;DHT22;18338;53.240;8.798;2023-08-30T06:57:58;15.50;99.90
31765;DHT22;18338;53.240;8.798;2023-08-30T07:00:25;15.50;99.90
31765;DHT22;18338;53.240;8.798;2023-08-30T07:02:52;15.60;99.90
31765;DHT22;18338;53.240;8.798;2023-08-30T07:05:22;15.70;99.90
31765;DHT22;18338;53.240;8.798;2023-08-30T07:07:49;15.80;99.90
31765;DHT22;18338;53.240;8.798;2023-08-30T07:10:16;15.90;99.90
31765;DHT22;18338;53.240;8.798;2023-08-30T07:12:43;15.90;99.90
31765;DHT22;18338;53.240;8.798;2023-08-30T07:15:11;16.00;99.90
31765;DHT22;18338;53.240;8.798;2023-08-30T07:17:38;16.10;99.90
31765;DHT22;18338;53.240;8.798;2023-08-30T07:20:19;16.20;99.90
31765;DHT22;18338;53.240;8.798;2023-08-30T07:22:46;16.40;99.90
31765;DHT22;18338;53.240;8.798;2023-08-30T07:25:13;16.50;99.90
31765;DHT22;18338;53.240;8.798;2023-08-30T07:27:40;16.50;99.90
31765;DHT22;18338;53.240;8.798;2023-08-30T07:30:07;16.60;99.90
31765;DHT22;18338;53.240;8.798;2023-08-30T07:32:34;16.70;99.90
31765;DHT22;18338;53.240;8.798;2023-08-30T07:35:03;16.80;99.90
31765;DHT22;18338;53.240;8.798;2023-08-30T07:37:30;16.80;99.90
31765;DHT22;18338;53.240;8.798;2023-08-30T07:39:57;16.90;99.90
31765;DHT22;18338;53.240;8.798;2023-08-30T07:42:24;17.00;99.90
31765;DHT22;18338;53.240;8.798;2023-08-30T07:44:50;17.10;99.90
31765;DHT22;18338;53.240;8.798;2023-08-30T07:47:17;17.10;99.90
31765;DHT22;18338;53.240;8.798;2023-08-30T07:49:44;17.20;99.90
31765;DHT22;18338;53.240;8.798;2023-08-30T07:52:11;17.20;99.90
31765;DHT22;18338;53.240;8.798;2023-08-30T07:54:43;17.30;99.90
31765;DHT22;18338;53.240;8.798;2023-08-30T08:00:41;17.70;99.90
31765;DHT22;18338;53.240;8.798;2023-08-30T08:03:08;17.70;99.90
31765;DHT22;18338;53.240;8.798;2023-08-30T08:05:37;17.90;99.90
31765;DHT22;18338;53.240;8.798;2023-08-30T08:08:04;18.20;99.90
31765;DHT22;18338;53.240;8.798;2023-08-30T08:10:34;18.60;99.90
31765;DHT22;18338;53.240;8.798;2023-08-30T08:13:00;18.90;99.90
31765;DHT22;18338;53.240;8.798;2023-08-30T08:15:28;18.90;99.90
31765;DHT22;18338;53.240;8.798;2023-08-30T08:17:57;18.80;99.90
31765;DHT22;18338;53.240;8.798;2023-08-30T08:20:24;19.00;99.90
31765;DHT22;18338;53.240;8.798;2023-08-30T08:22:51;19.20;99.90
31765;DHT22;18338;53.240;8.798;2023-08-30T08:25:17;19.40;99.90
31765;DHT22;18338;53.240;8.798;2023-08-30T08:27:44;19.60;99.90
31765;DHT22;18338;53.240;8.798;2023-08-30T08:30:11;19.40;99.90
31765;DHT22;18338;53.240;8.798;2023-08-30T08:32:38;19.30;99.90
31765;DHT22;18338;53.240;8.798;2023-08-30T08:35:05;19.70;99.90
31765;DHT22;18338;53.240;8.798;2023-08-30T08:37:32;20.90;99.90
31765;DHT22;18338;53.240;8.798;2023-08-30T08:39:59;22.40;99.90
31765;DHT22;18338;53.240;8.798;2023-08-30T08:42:27;23.20;99.90
31765;DHT22;18338;53.240;8.798;2023-08-30T08:44:54;23.90;99.90
31765;DHT22;18338;53.240;8.798;2023-08-30T08:47:22;24.30;99.90
31765;DHT22;18338;53.240;8.798;2023-08-30T08:49:51;24.80;99.90
31765;DHT22;18338;53.240;8.798;2023-08-30T08:52:17;25.70;99.90
31765;DHT22;18338;53.240;8.798;2023-08-30T08:54:58;26.80;99.90
31765;DHT22;18338;53.240;8.798;2023-08-30T08:57:29;27.40;99.90
31765;DHT22;18338;53.240;8.798;2023-08-30T08:59:58;28.40;98.90
31765;DHT22;18338;53.240;8.798;2023-08-30T09:02:25;28.50;97.70
31765;DHT22;18338;53.240;8.798;2023-08-30T09:04:52;29.60;96.10
31765;DHT22;18338;53.240;8.798;2023-08-30T09:07:19;28.90;93.30
31765;DHT22;18338;53.240;8.798;2023-08-30T09:09:47;28.90;94.00
31765;DHT22;18338;53.240;8.798;2023-08-30T09:12:14;28.90;93.50
31765;DHT22;18338;53.240;8.798;2023-08-30T09:14:41;29.30;94.00
31765;DHT22;18338;53.240;8.798;2023-08-30T09:17:07;28.80;92.80
31765;DHT22;18338;53.240;8.798;2023-08-30T09:19:34;29.30;92.00
31765;DHT22;18338;53.240;8.798;2023-08-30T09:22:01;29.10;90.20
31765;DHT22;18338;53.240;8.798;2023-08-30T09:24:38;27.90;91.20
31765;DHT22;18338;53.240;8.798;2023-08-30T09:27:06;29.20;93.00
31765;DHT22;18338;53.240;8.798;2023-08-30T09:29:33;29.70;90.20
31765;DHT22;18338;53.240;8.798;2023-08-30T09:32:01;30.80;85.40
31765;DHT22;18338;53.240;8.798;2023-08-30T09:34:28;30.80;85.00
31765;DHT22;18338;53.240;8.798;2023-08-30T09:36:55;30.70;82.50
31765;DHT22;18338;53.240;8.798;2023-08-30T09:39:22;30.50;84.10
31765;DHT22;18338;53.240;8.798;2023-08-30T09:41:50;30.40;84.80
31765;DHT22;18338;53.240;8.798;2023-08-30T09:44:19;30.80;85.80
31765;DHT22;18338;53.240;8.798;2023-08-30T09:46:51;30.40;84.80
31765;DHT22;18338;53.240;8.798;2023-08-30T09:49:21;31.60;84.80
31765;DHT22;18338;53.240;8.798;2023-08-30T09:51:50;32.50;79.90
31765;DHT22;18338;53.240;8.798;2023-08-30T09:54:20;31.50;77.20
31765;DHT22;18338;53.240;8.798;2023-08-30T09:56:50;31.20;75.50
31765;DHT22;18338;53.240;8.798;2023-08-30T09:59:22;30.40;78.10
31765;DHT22;18338;53.240;8.798;2023-08-30T10:01:50;29.90;77.00
31765;DHT22;18338;53.240;8.798;2023-08-30T10:04:20;29.20;77.30
31765;DHT22;18338;53.240;8.798;2023-08-30T10:06:47;29.20;78.30
31765;DHT22;18338;53.240;8.798;2023-08-30T10:09:15;28.70;80.20
31765;DHT22;18338;53.240;8.798;2023-08-30T10:11:45;28.40;79.80
31765;DHT22;18338;53.240;8.798;2023-08-30T10:14:13;28.00;85.30
31765;DHT22;18338;53.240;8.798;2023-08-30T10:16:44;27.40;84.90
31765;DHT22;18338;53.240;8.798;2023-08-30T10:19:16;27.30;87.10
31765;DHT22;18338;53.240;8.798;2023-08-30T10:21:44;26.70;86.40
31765;DHT22;18338;53.240;8.798;2023-08-30T10:24:14;25.80;89.00
31765;DHT22;18338;53.240;8.798;2023-08-30T10:26:57;26.10;91.90
31765;DHT22;18338;53.240;8.798;2023-08-30T10:29:25;26.60;90.70
31765;DHT22;18338;53.240;8.798;2023-08-30T10:31:52;27.20;91.50
31765;DHT22;18338;53.240;8.798;2023-08-30T10:34:19;27.70;88.80
31765;DHT22;18338;53.240;8.798;2023-08-30T10:36:59;26.60;89.40
31765;DHT22;18338;53.240;8.798;2023-08-30T10:39:41;26.40;88.30
31765;DHT22;18338;53.240;8.798;2023-08-30T10:42:16;25.60;92.20
31765;DHT22;18338;53.240;8.798;2023-08-30T10:45:09;27.60;94.20
31765;DHT22;18338;53.240;8.798;2023-08-30T10:47:40;30.90;86.40
31765;DHT22;18338;53.240;8.798;2023-08-30T10:50:12;32.80;76.20
31765;DHT22;18338;53.240;8.798;2023-08-30T10:52:39;31.40;76.40
31765;DHT22;18338;53.240;8.798;2023-08-30T10:55:11;30.10;75.50
31765;DHT22;18338;53.240;8.798;2023-08-30T10:57:41;29.40;81.10
31765;DHT22;18338;53.240;8.798;2023-08-30T11:02:37;29.90;81.10
31765;DHT22;18338;53.240;8.798;2023-08-30T11:05:08;28.00;81.50
31765;DHT22;18338;53.240;8.798;2023-08-30T11:07:35;26.90;90.50
31765;DHT22;18338;53.240;8.798;2023-08-30T11:10:06;25.80;91.60
31765;DHT22;18338;53.240;8.798;2023-08-30T11:12:33;25.30;94.40
31765;DHT22;18338;53.240;8.798;2023-08-30T11:15:00;25.00;94.50
31765;DHT22;18338;53.240;8.798;2023-08-30T11:17:27;24.60;96.30
31765;DHT22;18338;53.240;8.798;2023-08-30T11:20:05;24.00;97.80
31765;DHT22;18338;53.240;8.798;2023-08-30T11:22:39;23.70;98.60
31765;DHT22;18338;53.240;8.798;2023-08-30T11:25:08;23.80;99.00
31765;DHT22;18338;53.240;8.798;2023-08-30T11:27:35;23.50;99.90
31765;DHT22;18338;53.240;8.798;2023-08-30T11:30:03;23.50;99.90
31765;DHT22;18338;53.240;8.798;2023-08-30T11:32:33;23.60;99.90
31765;DHT22;18338;53.240;8.798;2023-08-30T11:35:01;23.50;99.90
31765;DHT22;18338;53.240;8.798;2023-08-30T11:37:28;23.20;99.90
31765;DHT22;18338;53.240;8.798;2023-08-30T11:39:55;23.20;99.90
31765;DHT22;18338;53.240;8.798;2023-08-30T11:42:22;22.70;99.90
31765;DHT22;18338;53.240;8.798;2023-08-30T11:44:50;22.60;99.90
31765;DHT22;18338;53.240;8.798;2023-08-30T11:47:19;22.50;99.90
31765;DHT22;18338;53.240;8.798;2023-08-30T11:49:48;22.50;99.90
31765;DHT22;18338;53.240;8.798;2023-08-30T11:52:17;22.40;99.90
31765;DHT22;18338;53.240;8.798;2023-08-30T11:54:44;22.30;99.90
31765;DHT22;18338;53.240;8.798;2023-08-30T11:57:13;21.90;99.90
31765;DHT22;18338;53.240;8.798;2023-08-30T11:59:39;21.60;99.90
31765;DHT22;18338;53.240;8.798;2023-08-30T12:02:12;21.20;99.90
31765;DHT22;18338;53.240;8.798;2023-08-30T12:04:40;21.00;99.90
31765;DHT22;18338;53.240;8.798;2023-08-30T12:07:07;20.70;99.90
31765;DHT22;18338;53.240;8.798;2023-08-30T12:09:34;20.40;99.90
31765;DHT22;18338;53.240;8.798;2023-08-30T12:12:05;20.30;99.90
31765;DHT22;18338;53.240;8.798;2023-08-30T12:14:34;20.40;99.90
31765;DHT22;18338;53.240;8.798;2023-08-30T12:17:00;20.50;99.90
31765;DHT22;18338;53.240;8.798;2023-08-30T12:19:28;20.70;99.90
31765;DHT22;18338;53.240;8.798;2023-08-30T12:21:55;20.90;99.90
31765;DHT22;18338;53.240;8.798;2023-08-30T12:24:22;20.90;99.90
31765;DHT22;18338;53.240;8.798;2023-08-30T12:26:49;21.00;99.90
31765;DHT22;18338;53.240;8.798;2023-08-30T12:29:37;21.10;99.90
31765;DHT22;18338;53.240;8.798;2023-08-30T12:32:12;21.20;99.90
31765;DHT22;18338;53.240;8.798;2023-08-30T12:34:39;21.10;99.90
31765;DHT22;18338;53.240;8.798;2023-08-30T12:37:06;21.00;99.90
31765;DHT22;18338;53.240;8.798;2023-08-30T12:39:33;20.90;99.90
31765;DHT22;18338;53.240;8.798;2023-08-30T12:42:00;20.90;99.90
31765;DHT22;18338;53.240;8.798;2023-08-30T12:44:27;21.00;99.90
31765;DHT22;18338;53.240;8.798;2023-08-30T12:46:53;20.90;99.90
31765;DHT22;18338;53.240;8.798;2023-08-30T12:49:20;20.70;99.90
31765;DHT22;18338;53.240;8.798;2023-08-30T12:51:55;20.70;99.90
31765;DHT22;18338;53.240;8.798;2023-08-30T12:54:22;20.80;99.90
31765;DHT22;18338;53.240;8.798;2023-08-30T12:56:49;20.70;99.90
31765;DHT22;18338;53.240;8.798;2023-08-30T12:59:55;20.50;99.90
31765;DHT22;18338;53.240;8.798;2023-08-30T13:02:22;20.40;99.90
31765;DHT22;18338;53.240;8.798;2023-08-30T13:04:51;20.40;99.90
31765;DHT22;18338;53.240;8.798;2023-08-30T13:07:18;20.20;99.90
31765;DHT22;18338;53.240;8.798;2023-08-30T13:09:47;20.10;99.90
31765;DHT22;18338;53.240;8.798;2023-08-30T13:12:19;20.30;99.90
31765;DHT22;18338;53.240;8.798;2023-08-30T13:14:49;20.30;99.90
31765;DHT22;18338;53.240;8.798;2023-08-30T13:17:16;20.30;99.90
31765;DHT22;18338;53.240;8.798;2023-08-30T13:20:11;20.20;99.90
31765;DHT22;18338;53.240;8.798;2023-08-30T13:22:55;20.30;99.90
31765;DHT22;18338;53.240;8.798;2023-08-30T13:25:25;20.50;99.90
31765;DHT22;18338;53.240;8.798;2023-08-30T13:27:52;20.50;99.90
31765;DHT22;18338;53.240;8.798;2023-08-30T13:30:21;20.50;99.90
31765;DHT22;18338;53.240;8.798;2023-08-30T13:33:42;20.30;99.90
31765;DHT22;18338;53.240;8.798;2023-08-30T13:36:17;19.70;99.90
31765;DHT22;18338;53.240;8.798;2023-08-30T13:38:44;19.10;99.90
31765;DHT22;18338;53.240;8.798;2023-08-30T13:41:11;18.70;99.90
31765;DHT22;18338;53.240;8.798;2023-08-30T13:43:37;18.40;99.90
31765;DHT22;18338;53.240;8.798;2023-08-30T13:46:04;18.30;99.90
31765;DHT22;18338;53.240;8.798;2023-08-30T13:48:31;18.20;99.90
31765;DHT22;18338;53.240;8.798;2023-08-30T13:50:58;18.10;99.90
31765;DHT22;18338;53.240;8.798;2023-08-30T13:53:25;17.90;99.90
31765;DHT22;18338;53.240;8.798;2023-08-30T13:55:52;17.80;99.90
31765;DHT22;18338;53.240;8.798;2023-08-30T13:58:19;17.70;99.90
31765;DHT22;18338;53.240;8.798;2023-08-30T14:00:46;17.60;99.90
31765;DHT22;18338;53.240;8.798;2023-08-30T14:03:12;17.60;99.90
31765;DHT22;18338;53.240;8.798;2023-08-30T14:05:39;17.60;99.90
31765;DHT22;18338;53.240;8.798;2023-08-30T14:08:07;17.60;99.90
31765;DHT22;18338;53.240;8.798;2023-08-30T14:10:34;17.40;99.90
31765;DHT22;18338;53.240;8.798;2023-08-30T14:13:01;17.30;99.90
31765;DHT22;18338;53.240;8.798;2023-08-30T14:15:28;17.20;99.90
31765;DHT22;18338;53.240;8.798;2023-08-30T14:17:55;17.10;99.90
31765;DHT22;18338;53.240;8.798;2023-08-30T14:20:22;17.00;99.90
31765;DHT22;18338;53.240;8.798;2023-08-30T14:22:48;17.00;99.90
31765;DHT22;18338;53.240;8.798;2023-08-30T14:25:15;16.90;99.90
31765;DHT22;18338;53.240;8.798;2023-08-30T14:27:42;16.70;99.90
31765;DHT22;18338;53.240;8.798;2023-08-30T14:30:10;16.60;99.90
31765;DHT22;18338;53.240;8.798;2023-08-30T14:32:36;16.50;99.90
31765;DHT22;18338;53.240;8.798;2023-08-30T14:35:04;16.50;99.90
31765;DHT22;18338;53.240;8.798;2023-08-30T14:37:31;16.50;99.90
31765;DHT22;18338;53.240;8.798;2023-08-30T14:39:57;16.40;99.90
31765;DHT22;18338;53.240;8.798;2023-08-30T14:42:25;16.40;99.90
31765;DHT22;18338;53.240;8.798;2023-08-30T14:44:52;16.50;99.90
31765;DHT22;18338;53.240;8.798;2023-08-30T14:47:18;16.50;99.90
31765;DHT22;18338;53.240;8.798;2023-08-30T14:49:47;16.50;99.90
31765;DHT22;18338;53.240;8.798;2023-08-30T14:52:14;16.50;99.90
31765;DHT22;18338;53.240;8.798;2023-08-30T14:54:42;16.50;99.90
31765;DHT22;18338;53.240;8.798;2023-08-30T14:57:09;16.60;99.90
31765;DHT22;18338;53.240;8.798;2023-08-30T14:59:36;16.60;99.90
31765;DHT22;18338;53.240;8.798;2023-08-30T15:02:03;16.70;99.90
31765;DHT22;18338;53.240;8.798;2023-08-30T15:04:30;16.70;99.90
31765;DHT22;18338;53.240;8.798;2023-08-30T15:06:56;16.70;99.90
31765;DHT22;18338;53.240;8.798;2023-08-30T15:09:23;16.60;99.90
31765;DHT22;18338;53.240;8.798;2023-08-30T15:11:50;16.50;99.90
31765;DHT22;18338;53.240;8.798;2023-08-30T15:14:17;16.30;99.90
31765;DHT22;18338;53.240;8.798;2023-08-30T15:16:44;16.20;99.90
31765;DHT22;18338;53.240;8.798;2023-08-30T15:19:10;16.10;99.90
31765;DHT22;18338;53.240;8.798;2023-08-30T15:21:37;16.10;99.90
31765;DHT22;18338;53.240;8.798;2023-08-30T15:24:04;16.00;99.90
31765;DHT22;18338;53.240;8.798;2023-08-30T15:26:31;16.00;99.90
31765;DHT22;18338;53.240;8.798;2023-08-30T15:28:58;16.00;99.90
31765;DHT22;18338;53.240;8.798;2023-08-30T15:31:25;16.00;99.90
31765;DHT22;18338;53.240;8.798;2023-08-30T15:33:52;15.90;99.90
31765;DHT22;18338;53.240;8.798;2023-08-30T15:36:19;16.10;99.90
31765;DHT22;18338;53.240;8.798;2023-08-30T15:38:45;16.30;99.90
31765;DHT22;18338;53.240;8.798;2023-08-30T15:41:13;16.60;99.90
31765;DHT22;18338;53.240;8.798;2023-08-30T15:43:40;16.70;99.90